Time;durP1;ratioP1;P1;durP2;ratioP2;P2;SDS_P1;SDS_P2;PMS_P1;PMS_P2;Temp;Humidity;BMP_temperature;BMP_pressure;BME280_temperature;BME280_humidity;BME280_pressure;Samples;Min_cycle;Max_cycle;Signal;HPM_P1;HPM_P2
2023/06/30 00:00:17;;;;;;;8.43;2.55;;;22.30;59.40;;;;;;5042962;28;20029;-61
2023/06/30 00:02:42;;;;;;;8.30;2.95;;;22.30;59.50;;;;;;5041770;28;20029;-60
2023/06/30 00:05:09;;;;;;;5.88;2.83;;;22.30;59.70;;;;;;5041885;28;20033;-61
2023/06/30 00:07:36;;;;;;;6.75;2.65;;;22.20;59.50;;;;;;5041565;28;20022;-61
2023/06/30 00:10:03;;;;;;;4.20;2.80;;;22.20;59.70;;;;;;5042642;28;20020;-60
2023/06/30 00:12:29;;;;;;;6.53;2.60;;;22.20;59.90;;;;;;5041332;28;20025;-60
2023/06/30 00:14:54;;;;;;;5.97;2.50;;;22.10;59.90;;;;;;5041629;28;20037;-60
2023/06/30 00:17:20;;;;;;;4.05;2.50;;;22.10;59.70;;;;;;5042339;28;20029;-60
2023/06/30 00:19:45;;;;;;;4.85;2.40;;;22.00;59.80;;;;;;5041409;28;20048;-61
2023/06/30 00:22:11;;;;;;;4.68;2.72;;;22.00;59.80;;;;;;5041351;28;20092;-60
2023/06/30 00:24:37;;;;;;;2.65;2.20;;;22.00;59.90;;;;;;5040803;28;20106;-61
2023/06/30 00:27:03;;;;;;;2.95;2.50;;;22.00;59.80;;;;;;5042381;28;20060;-61
2023/06/30 00:29:29;;;;;;;4.82;2.72;;;22.00;59.60;;;;;;5041422;28;20017;-60
2023/06/30 00:31:54;;;;;;;5.10;2.60;;;21.90;59.40;;;;;;5041062;28;20099;-60
2023/06/30 00:34:20;;;;;;;9.45;3.75;;;21.90;59.30;;;;;;5042192;28;20093;-61
2023/06/30 00:36:45;;;;;;;4.00;2.47;;;21.90;59.50;;;;;;5037111;28;20058;-60
2023/06/30 00:39:11;;;;;;;4.68;2.67;;;21.90;59.70;;;;;;4954491;28;20048;-60
2023/06/30 00:41:37;;;;;;;7.97;2.58;;;21.80;59.90;;;;;;5042265;28;20037;-60
2023/06/30 00:44:02;;;;;;;3.40;2.33;;;21.80;59.90;;;;;;5041167;28;20045;-61
2023/06/30 00:46:28;;;;;;;2.92;2.35;;;21.80;60.00;;;;;;5041189;28;20036;-61
2023/06/30 00:48:54;;;;;;;5.30;2.70;;;21.80;60.10;;;;;;5041993;28;20596;-60
2023/06/30 00:51:20;;;;;;;4.55;2.67;;;21.70;60.10;;;;;;5041306;28;20060;-60
2023/06/30 00:53:47;;;;;;;3.67;2.55;;;21.70;60.00;;;;;;5040590;28;20021;-61
2023/06/30 00:56:12;;;;;;;4.57;2.58;;;21.60;60.10;;;;;;5036501;28;20025;-62
2023/06/30 00:58:38;;;;;;;3.65;2.85;;;21.60;60.50;;;;;;5041954;28;20026;-61
2023/06/30 01:01:15;;;;;;;7.88;2.78;;;21.60;60.80;;;;;;5040545;28;20029;-61
2023/06/30 01:03:53;;;;;;;4.20;2.58;;;21.50;61.50;;;;;;5040890;28;20032;-60
2023/06/30 01:06:18;;;;;;;4.55;2.95;;;21.50;61.90;;;;;;5040474;28;20025;-60
2023/06/30 01:08:49;;;;;;;7.07;3.00;;;21.50;61.30;;;;;;5040674;28;20036;-61
2023/06/30 01:11:16;;;;;;;3.80;2.83;;;21.50;61.40;;;;;;5040613;28;20186;-61
2023/06/30 01:13:42;;;;;;;3.47;2.75;;;21.50;61.40;;;;;;5041538;28;20464;-59
2023/06/30 01:16:11;;;;;;;4.15;2.92;;;21.50;61.40;;;;;;5040727;28;20052;-61
2023/06/30 01:18:41;;;;;;;6.95;2.53;;;21.50;61.60;;;;;;5040387;28;20052;-60
2023/06/30 01:21:13;;;;;;;5.55;2.85;;;21.40;61.50;;;;;;5041219;28;20072;-60
2023/06/30 01:23:45;;;;;;;11.05;2.85;;;21.40;61.30;;;;;;5041297;28;20021;-61
2023/06/30 01:26:12;;;;;;;5.00;2.80;;;21.40;61.10;;;;;;5037565;28;20120;-62
2023/06/30 01:28:37;;;;;;;8.25;3.42;;;21.40;61.20;;;;;;5041632;28;20025;-61
2023/06/30 01:31:08;;;;;;;4.05;2.80;;;21.30;61.40;;;;;;5040280;28;20060;-61
2023/06/30 01:33:36;;;;;;;4.63;3.00;;;21.30;61.50;;;;;;5038909;28;20029;-61
2023/06/30 01:36:02;;;;;;;5.10;2.67;;;21.30;61.70;;;;;;5040269;28;20041;-60
2023/06/30 01:38:27;;;;;;;3.88;2.55;;;21.20;61.50;;;;;;5040179;28;20025;-60
2023/06/30 01:40:53;;;;;;;4.25;2.22;;;21.20;61.50;;;;;;5022682;28;20022;-61
2023/06/30 01:43:20;;;;;;;4.18;2.45;;;21.20;61.50;;;;;;5040382;28;20033;-61
2023/06/30 01:45:46;;;;;;;5.85;2.45;;;21.10;61.60;;;;;;5041373;28;20048;-61
2023/06/30 01:48:12;;;;;;;6.28;2.90;;;21.10;61.60;;;;;;5040281;28;22540;-61
2023/06/30 01:50:38;;;;;;;4.55;2.75;;;21.00;61.70;;;;;;5039860;28;20025;-60
2023/06/30 01:53:04;;;;;;;5.60;2.92;;;21.00;61.90;;;;;;5040127;28;20551;-61
2023/06/30 01:55:30;;;;;;;5.53;2.63;;;21.00;61.90;;;;;;5044499;28;20026;-61
2023/06/30 01:57:55;;;;;;;2.85;2.33;;;20.90;61.70;;;;;;5043231;28;20041;-60
2023/06/30 02:00:21;;;;;;;6.47;2.65;;;20.90;61.80;;;;;;5040209;28;20037;-60
2023/06/30 02:02:46;;;;;;;5.97;2.78;;;20.90;62.00;;;;;;5040823;28;20033;-61
2023/06/30 02:05:13;;;;;;;6.00;3.40;;;20.80;62.00;;;;;;5037444;28;20028;-61
2023/06/30 02:07:38;;;;;;;4.90;3.63;;;20.80;61.90;;;;;;5038607;28;20178;-61
2023/06/30 02:10:04;;;;;;;5.32;3.63;;;20.70;62.00;;;;;;5040243;28;20037;-62
2023/06/30 02:12:30;;;;;;;5.05;3.50;;;20.70;62.20;;;;;;5040983;28;20037;-61
2023/06/30 02:14:56;;;;;;;4.45;3.15;;;20.70;62.20;;;;;;5039631;28;20479;-61
2023/06/30 02:17:31;;;;;;;5.22;2.88;;;20.70;62.40;;;;;;5039787;28;20036;-60
2023/06/30 02:19:57;;;;;;;4.43;2.90;;;20.60;63.10;;;;;;5040026;28;20040;-61
2023/06/30 02:22:23;;;;;;;7.45;2.88;;;20.60;62.60;;;;;;5040725;28;20025;-61
2023/06/30 02:24:49;;;;;;;6.22;2.80;;;20.60;62.60;;;;;;5039664;28;20121;-61
2023/06/30 02:27:16;;;;;;;5.93;3.03;;;20.60;62.80;;;;;;5040146;28;20105;-62
2023/06/30 02:29:43;;;;;;;4.25;2.80;;;20.50;62.80;;;;;;5039851;28;20022;-61
2023/06/30 02:32:09;;;;;;;4.85;3.00;;;20.50;62.90;;;;;;5040522;28;20037;-61
2023/06/30 02:34:34;;;;;;;3.63;2.92;;;20.50;62.90;;;;;;5039958;28;20041;-60
2023/06/30 02:37:00;;;;;;;7.30;3.20;;;20.50;63.10;;;;;;5039429;28;20037;-59
2023/06/30 02:39:26;;;;;;;4.85;2.88;;;20.50;63.10;;;;;;5040429;28;20084;-60
2023/06/30 02:41:52;;;;;;;4.72;3.10;;;20.40;63.20;;;;;;5039762;28;20025;-59
2023/06/30 02:44:18;;;;;;;4.00;2.75;;;20.40;63.20;;;;;;5039485;28;20036;-61
2023/06/30 02:46:44;;;;;;;8.90;2.95;;;20.40;63.30;;;;;;5040292;28;20025;-61
2023/06/30 02:49:09;;;;;;;4.53;2.78;;;20.40;63.30;;;;;;5038839;28;20033;-60
2023/06/30 02:51:35;;;;;;;4.75;2.72;;;20.40;63.40;;;;;;5043295;28;20038;-61
2023/06/30 02:54:01;;;;;;;5.13;3.10;;;20.30;63.40;;;;;;5043111;28;20032;-61
2023/06/30 02:56:26;;;;;;;4.20;2.60;;;20.30;63.30;;;;;;5044353;28;20025;-62
2023/06/30 02:58:52;;;;;;;5.55;3.15;;;20.30;63.40;;;;;;5043242;28;20026;-62
2023/06/30 03:01:21;;;;;;;7.13;3.15;;;20.30;63.60;;;;;;5042847;28;20053;-61
2023/06/30 03:03:47;;;;;;;4.75;3.17;;;20.20;63.70;;;;;;5043945;28;20047;-60
2023/06/30 03:06:13;;;;;;;9.02;3.40;;;20.20;63.80;;;;;;5040156;28;20022;-61
2023/06/30 03:08:38;;;;;;;6.65;3.40;;;20.20;64.00;;;;;;5042851;28;20059;-61
2023/06/30 03:11:04;;;;;;;5.07;3.00;;;20.20;64.10;;;;;;5042893;28;20044;-61
2023/06/30 03:13:29;;;;;;;7.68;3.30;;;20.20;63.90;;;;;;5044260;28;20044;-60
2023/06/30 03:15:55;;;;;;;6.30;3.30;;;20.20;64.00;;;;;;5042461;28;20164;-60
2023/06/30 03:18:21;;;;;;;5.45;3.17;;;20.20;64.10;;;;;;5042868;28;20030;-60
2023/06/30 03:20:47;;;;;;;7.32;3.58;;;20.20;64.30;;;;;;5043759;28;20021;-60
2023/06/30 03:23:14;;;;;;;6.95;3.08;;;20.20;64.40;;;;;;5044043;28;20037;-61
2023/06/30 03:25:39;;;;;;;5.07;3.13;;;20.20;64.30;;;;;;5042144;28;20049;-61
2023/06/30 03:28:05;;;;;;;6.55;3.42;;;20.10;64.40;;;;;;5025014;28;20381;-61
2023/06/30 03:30:31;;;;;;;4.88;3.40;;;20.10;64.40;;;;;;5043617;28;20056;-61
2023/06/30 03:32:56;;;;;;;5.13;3.20;;;20.10;64.40;;;;;;5042693;28;20049;-61
2023/06/30 03:35:22;;;;;;;4.85;3.13;;;20.10;64.50;;;;;;5042613;28;20030;-61
2023/06/30 03:37:48;;;;;;;11.77;3.33;;;20.10;64.40;;;;;;5043355;28;20030;-61
2023/06/30 03:40:13;;;;;;;8.07;3.35;;;20.10;64.40;;;;;;5042232;28;20053;-60
2023/06/30 03:42:39;;;;;;;8.25;3.50;;;20.10;64.60;;;;;;5042551;28;20033;-61
2023/06/30 03:45:05;;;;;;;6.20;3.08;;;20.10;64.70;;;;;;5042399;28;20033;-61
2023/06/30 03:47:31;;;;;;;4.13;3.17;;;20.20;64.70;;;;;;5042436;28;20031;-60
2023/06/30 03:49:56;;;;;;;4.60;3.00;;;20.20;64.70;;;;;;5042376;28;20025;-60
2023/06/30 03:52:22;;;;;;;7.25;3.95;;;20.20;64.60;;;;;;5041828;28;20038;-61
2023/06/30 03:54:48;;;;;;;5.75;3.67;;;20.20;64.60;;;;;;5043457;28;20108;-60
2023/06/30 03:57:13;;;;;;;6.68;3.60;;;20.20;64.70;;;;;;5037291;28;20026;-60
2023/06/30 03:59:39;;;;;;;6.30;3.50;;;20.20;64.70;;;;;;5041365;28;20029;-60
2023/06/30 04:02:05;;;;;;;5.90;3.45;;;20.20;65.00;;;;;;5042858;28;20037;-61
2023/06/30 04:04:30;;;;;;;6.07;3.30;;;20.20;65.10;;;;;;5042268;28;20496;-60
2023/06/30 04:06:56;;;;;;;7.78;3.67;;;20.20;65.10;;;;;;5041877;28;20041;-61
2023/06/30 04:09:22;;;;;;;6.38;3.42;;;20.20;65.20;;;;;;5043275;28;20127;-61
2023/06/30 04:11:50;;;;;;;6.43;3.60;;;20.20;65.10;;;;;;5041936;28;20546;-61
2023/06/30 04:14:16;;;;;;;8.00;3.80;;;20.30;65.10;;;;;;5041512;28;20029;-60
2023/06/30 04:16:41;;;;;;;3.95;3.17;;;20.30;65.10;;;;;;5041534;28;20022;-60
2023/06/30 04:19:07;;;;;;;8.27;3.53;;;20.30;65.00;;;;;;5042649;28;20037;-60
2023/06/30 04:21:33;;;;;;;9.00;3.67;;;20.30;65.10;;;;;;5041811;28;20033;-60
2023/06/30 04:23:58;;;;;;;5.95;3.45;;;20.30;65.20;;;;;;5041851;28;20370;-61
2023/06/30 04:26:24;;;;;;;5.72;3.67;;;20.30;65.10;;;;;;5042662;28;20056;-60
2023/06/30 04:28:50;;;;;;;7.15;3.65;;;20.30;65.90;;;;;;5040967;28;20036;-60
2023/06/30 04:31:15;;;;;;;6.25;3.65;;;20.30;65.30;;;;;;5041704;28;20052;-60
2023/06/30 04:33:41;;;;;;;7.20;3.70;;;20.30;65.30;;;;;;5024572;28;20080;-60
2023/06/30 04:36:07;;;;;;;5.65;3.58;;;20.30;65.30;;;;;;5041154;28;20049;-60
2023/06/30 04:38:35;;;;;;;5.93;3.67;;;20.30;65.30;;;;;;5040852;28;20021;-61
2023/06/30 04:41:01;;;;;;;7.20;3.40;;;20.30;65.50;;;;;;5041384;28;20396;-61
2023/06/30 04:43:27;;;;;;;6.95;4.00;;;20.40;65.40;;;;;;5042286;28;20048;-61
2023/06/30 04:45:53;;;;;;;6.68;3.83;;;20.40;65.50;;;;;;5040031;28;20025;-60
2023/06/30 04:48:18;;;;;;;5.40;3.67;;;20.40;65.40;;;;;;5044900;28;20055;-60
2023/06/30 04:50:44;;;;;;;6.07;3.35;;;20.40;65.40;;;;;;5042344;28;20049;-60
2023/06/30 04:53:10;;;;;;;8.05;3.85;;;20.40;65.50;;;;;;5037177;28;20037;-60
2023/06/30 04:55:35;;;;;;;7.32;4.20;;;20.50;65.80;;;;;;5040798;28;20021;-61
2023/06/30 04:58:01;;;;;;;5.30;3.80;;;20.50;65.70;;;;;;5040984;28;20022;-62
2023/06/30 05:00:27;;;;;;;4.13;3.47;;;20.50;65.60;;;;;;5041956;28;20048;-63
2023/06/30 05:02:53;;;;;;;6.13;4.07;;;20.60;65.70;;;;;;5040900;28;20025;-62
2023/06/30 05:05:18;;;;;;;6.40;4.00;;;20.60;65.70;;;;;;5036756;28;20041;-61
2023/06/30 05:07:45;;;;;;;7.30;4.20;;;20.70;65.80;;;;;;5041752;28;20025;-61
2023/06/30 05:10:11;;;;;;;6.20;4.13;;;20.80;65.80;;;;;;5040803;28;20022;-61
2023/06/30 05:12:37;;;;;;;10.15;3.97;;;20.80;65.60;;;;;;5040489;28;20107;-60
2023/06/30 05:15:03;;;;;;;10.65;3.80;;;20.90;65.40;;;;;;5040593;28;20026;-60
2023/06/30 05:17:29;;;;;;;5.72;3.90;;;20.90;65.40;;;;;;5041370;28;20079;-60
2023/06/30 05:19:54;;;;;;;9.38;4.68;;;21.00;65.50;;;;;;5040674;28;20400;-60
2023/06/30 05:22:20;;;;;;;8.82;4.13;;;21.00;65.40;;;;;;5040330;28;20033;-60
2023/06/30 05:24:46;;;;;;;5.53;3.75;;;21.10;65.20;;;;;;5037136;28;20475;-60
2023/06/30 05:27:11;;;;;;;7.75;4.57;;;21.10;65.20;;;;;;5040137;28;20112;-60
2023/06/30 05:29:37;;;;;;;10.18;4.50;;;21.20;65.30;;;;;;5040472;28;20072;-61
2023/06/30 05:32:03;;;;;;;5.97;4.32;;;21.30;65.30;;;;;;5041121;28;20088;-60
2023/06/30 05:34:29;;;;;;;6.85;4.60;;;21.30;65.20;;;;;;5040272;28;20094;-60
2023/06/30 05:36:55;;;;;;;8.60;4.40;;;21.40;65.90;;;;;;5040692;28;20032;-61
2023/06/30 05:39:22;;;;;;;6.68;3.90;;;21.50;65.00;;;;;;5039507;28;20034;-61
2023/06/30 05:41:47;;;;;;;11.88;4.18;;;21.60;64.70;;;;;;5040914;28;20103;-59
2023/06/30 05:44:13;;;;;;;7.45;3.55;;;21.60;64.70;;;;;;5036074;28;20030;-59
2023/06/30 05:46:39;;;;;;;10.43;5.25;;;21.70;64.60;;;;;;5040384;28;20488;-60
2023/06/30 05:49:07;;;;;;;11.95;5.18;;;21.70;64.50;;;;;;5041217;28;20101;-60
2023/06/30 05:51:34;;;;;;;8.15;4.70;;;21.80;64.30;;;;;;5037469;28;20037;-60
2023/06/30 05:54:01;;;;;;;8.55;5.28;;;21.80;64.20;;;;;;5040324;28;20041;-59
2023/06/30 05:56:27;;;;;;;14.75;5.93;;;21.90;64.10;;;;;;5039909;28;20029;-59
2023/06/30 05:58:53;;;;;;;9.52;5.28;;;21.90;64.00;;;;;;5040729;28;20017;-60
2023/06/30 06:01:20;;;;;;;14.77;6.22;;;21.90;63.80;;;;;;5040009;28;20049;-60
2023/06/30 06:03:46;;;;;;;11.13;6.45;;;22.00;63.90;;;;;;5039982;28;20029;-60
2023/06/30 06:06:11;;;;;;;15.35;6.55;;;22.00;63.90;;;;;;5040432;28;20105;-60
2023/06/30 06:08:46;;;;;;;9.93;6.18;;;22.00;64.00;;;;;;5040741;28;20037;-60
2023/06/30 06:11:12;;;;;;;12.88;6.70;;;22.00;64.50;;;;;;5040592;28;20148;-59
2023/06/30 06:13:38;;;;;;;17.35;8.15;;;22.00;64.60;;;;;;5040015;28;20033;-60
2023/06/30 06:16:06;;;;;;;12.85;8.25;;;22.10;64.70;;;;;;5039975;28;20052;-59
2023/06/30 06:18:33;;;;;;;14.63;9.05;;;22.10;64.60;;;;;;5040893;28;20052;-60
2023/06/30 06:21:01;;;;;;;14.63;8.65;;;22.20;64.70;;;;;;5039579;28;20088;-59
2023/06/30 06:23:26;;;;;;;19.15;9.45;;;22.20;65.00;;;;;;5023336;28;20088;-59
2023/06/30 06:25:52;;;;;;;16.52;9.85;;;22.20;64.50;;;;;;5025461;28;20057;-59
2023/06/30 06:28:18;;;;;;;11.88;9.00;;;22.20;64.40;;;;;;5045076;28;20064;-60
2023/06/30 06:30:44;;;;;;;13.00;8.63;;;22.30;64.50;;;;;;5045801;28;20034;-60
2023/06/30 06:33:10;;;;;;;14.95;9.80;;;22.30;64.60;;;;;;5045297;28;20071;-59
2023/06/30 06:35:35;;;;;;;14.15;8.77;;;22.30;64.70;;;;;;5045456;28;20041;-60
2023/06/30 06:38:02;;;;;;;16.70;9.38;;;22.30;64.70;;;;;;5045792;28;20100;-60
2023/06/30 06:40:30;;;;;;;18.67;9.07;;;22.30;64.90;;;;;;5045555;28;20036;-60
2023/06/30 06:42:56;;;;;;;17.83;9.70;;;22.30;65.10;;;;;;5043266;28;20025;-60
2023/06/30 06:45:23;;;;;;;14.27;9.48;;;22.30;64.90;;;;;;5043306;28;20476;-61
2023/06/30 06:48:23;;;;;;;14.07;9.68;;;22.30;64.90;;;;;;5044142;28;20108;-59
2023/06/30 06:51:00;;;;;;;15.82;9.60;;;22.30;65.90;;;;;;5026546;28;20065;-59
2023/06/30 06:53:28;;;;;;;15.82;9.77;;;22.40;65.60;;;;;;5022406;28;20021;-60
2023/06/30 06:55:55;;;;;;;15.68;10.15;;;22.40;65.40;;;;;;5043608;28;20034;-59
2023/06/30 06:58:22;;;;;;;17.13;10.23;;;22.40;65.40;;;;;;5043758;28;20028;-59
2023/06/30 07:00:49;;;;;;;16.98;10.80;;;22.40;65.40;;;;;;5039974;28;20029;-59
2023/06/30 07:03:16;;;;;;;26.55;10.52;;;22.50;65.70;;;;;;5044247;28;20093;-60
2023/06/30 07:05:43;;;;;;;14.35;9.90;;;22.50;65.60;;;;;;5043145;28;20104;-60
2023/06/30 07:08:13;;;;;;;20.13;11.00;;;22.50;65.40;;;;;;5042974;28;20033;-60
2023/06/30 07:10:39;;;;;;;33.55;11.57;;;22.50;65.30;;;;;;5043861;28;20155;-60
2023/06/30 07:13:06;;;;;;;19.88;11.63;;;22.60;65.20;;;;;;5039772;28;20041;-60
2023/06/30 07:15:32;;;;;;;23.00;11.20;;;22.70;65.30;;;;;;5042890;28;20031;-60
2023/06/30 07:17:58;;;;;;;24.05;11.65;;;22.70;65.40;;;;;;5042552;28;20031;-59
2023/06/30 07:20:24;;;;;;;16.63;10.93;;;22.80;65.40;;;;;;5043933;28;20064;-60
2023/06/30 07:22:52;;;;;;;18.00;10.32;;;22.80;65.30;;;;;;5042442;28;20041;-60
2023/06/30 07:25:18;;;;;;;15.05;10.85;;;22.90;65.20;;;;;;5042443;28;20052;-60
2023/06/30 07:27:49;;;;;;;16.77;11.52;;;23.00;65.00;;;;;;5024696;28;20025;-61
2023/06/30 07:30:15;;;;;;;16.05;10.63;;;23.10;65.20;;;;;;5043629;28;20041;-60
2023/06/30 07:32:42;;;;;;;20.67;11.90;;;23.10;64.80;;;;;;5042265;28;20025;-61
2023/06/30 07:35:07;;;;;;;17.92;11.63;;;23.20;64.60;;;;;;5041146;28;20063;-59
2023/06/30 07:37:33;;;;;;;15.75;11.55;;;23.30;64.60;;;;;;5037931;28;20064;-59
2023/06/30 07:39:59;;;;;;;17.30;11.27;;;23.40;64.60;;;;;;5043003;28;20029;-60
2023/06/30 07:42:24;;;;;;;15.02;10.00;;;23.50;64.10;;;;;;5042263;28;20029;-60
2023/06/30 07:44:50;;;;;;;12.90;8.98;;;23.50;63.00;;;;;;5042112;28;20025;-60
2023/06/30 07:47:19;;;;;;;18.25;9.25;;;23.50;62.50;;;;;;5043228;28;20026;-61
2023/06/30 07:49:45;;;;;;;16.52;8.95;;;23.50;61.70;;;;;;5042543;28;20018;-60
2023/06/30 07:52:10;;;;;;;12.98;8.82;;;23.50;61.40;;;;;;5042138;28;20091;-60
2023/06/30 07:54:36;;;;;;;13.63;8.88;;;23.50;61.30;;;;;;5042066;28;20021;-60
2023/06/30 07:57:02;;;;;;;17.67;8.82;;;23.40;60.90;;;;;;5043008;28;20108;-61
2023/06/30 07:59:28;;;;;;;15.45;8.98;;;23.30;61.10;;;;;;5041975;28;20059;-59
2023/06/30 08:01:53;;;;;;;13.32;8.80;;;23.20;61.60;;;;;;5042025;28;20037;-59
2023/06/30 08:04:21;;;;;;;19.40;8.85;;;23.10;62.00;;;;;;5042883;28;20081;-60
2023/06/30 08:06:47;;;;;;;12.60;8.00;;;23.10;62.00;;;;;;5041720;28;20026;-61
2023/06/30 08:09:13;;;;;;;11.95;7.97;;;23.00;62.20;;;;;;5042140;28;20065;-61
2023/06/30 08:11:39;;;;;;;19.83;8.30;;;22.90;62.60;;;;;;5041711;28;20038;-60
2023/06/30 08:14:05;;;;;;;13.05;8.80;;;22.80;62.60;;;;;;5042649;28;20033;-60
2023/06/30 08:16:31;;;;;;;16.30;9.07;;;22.70;62.80;;;;;;5041495;28;20026;-59
2023/06/30 08:18:57;;;;;;;16.27;8.93;;;22.60;63.20;;;;;;5042052;28;20039;-59
2023/06/30 08:21:22;;;;;;;14.27;9.35;;;22.50;63.60;;;;;;5042506;28;20100;-59
2023/06/30 08:23:48;;;;;;;16.23;8.50;;;22.40;63.90;;;;;;5041820;28;20136;-59
2023/06/30 08:26:14;;;;;;;16.10;9.35;;;22.30;64.20;;;;;;5041764;28;20041;-58
2023/06/30 08:28:40;;;;;;;15.20;9.13;;;22.10;64.60;;;;;;5042863;28;20029;-59
2023/06/30 08:31:05;;;;;;;17.48;8.75;;;22.00;65.00;;;;;;5041487;28;20033;-59
2023/06/30 08:33:31;;;;;;;14.52;8.30;;;21.90;65.40;;;;;;5041744;28;20033;-58
2023/06/30 08:35:57;;;;;;;16.83;9.05;;;21.80;66.50;;;;;;5041534;28;20403;-58
2023/06/30 08:38:22;;;;;;;15.43;9.07;;;21.80;66.70;;;;;;5042165;28;20388;-58
2023/06/30 08:40:48;;;;;;;13.88;8.73;;;21.70;66.50;;;;;;5041624;28;20029;-59
2023/06/30 08:43:15;;;;;;;16.02;9.52;;;21.70;67.00;;;;;;5040862;28;20025;-59
2023/06/30 08:45:43;;;;;;;14.05;8.93;;;21.60;67.00;;;;;;5042095;28;20021;-58
2023/06/30 08:48:11;;;;;;;13.52;9.05;;;21.60;67.20;;;;;;5041401;28;20030;-58
2023/06/30 08:50:37;;;;;;;14.55;8.88;;;21.60;67.40;;;;;;5041128;28;20392;-59
2023/06/30 08:53:04;;;;;;;17.27;9.98;;;21.60;68.00;;;;;;5041067;28;20065;-59
2023/06/30 08:55:30;;;;;;;14.02;9.27;;;21.60;68.00;;;;;;5037885;28;20018;-59
2023/06/30 08:57:57;;;;;;;18.20;9.68;;;21.60;67.90;;;;;;5040960;28;20026;-57
2023/06/30 09:00:26;;;;;;;14.82;9.73;;;21.60;68.00;;;;;;5041216;28;20030;-58
2023/06/30 09:02:54;;;;;;;17.20;11.77;;;21.50;68.00;;;;;;5040451;28;20048;-57
2023/06/30 09:05:28;;;;;;;19.98;14.35;;;21.50;67.80;;;;;;5042102;28;20049;-59
2023/06/30 09:07:56;;;;;;;23.00;14.00;;;21.50;68.00;;;;;;5042266;28;20037;-58
2023/06/30 09:10:37;;;;;;;23.05;14.85;;;21.40;67.50;;;;;;5040810;28;20125;-58
2023/06/30 09:13:04;;;;;;;29.25;15.05;;;21.40;67.10;;;;;;5038432;28;20041;-58
2023/06/30 09:15:30;;;;;;;21.60;14.10;;;21.40;67.30;;;;;;5040933;28;20029;-58
2023/06/30 09:17:56;;;;;;;22.67;15.68;;;21.30;67.40;;;;;;5040513;28;20033;-58
2023/06/30 09:20:22;;;;;;;23.13;14.70;;;21.40;67.60;;;;;;5040733;28;20068;-59
2023/06/30 09:22:48;;;;;;;24.08;15.32;;;21.30;67.60;;;;;;5037533;28;20029;-58
2023/06/30 09:25:25;;;;;;;21.45;14.35;;;21.40;67.80;;;;;;5040567;28;20483;-60
2023/06/30 09:27:55;;;;;;;21.40;14.02;;;21.30;67.60;;;;;;5040620;28;20076;-58
2023/06/30 09:30:34;;;;;;;21.73;14.05;;;21.40;68.10;;;;;;5040679;28;20049;-58
2023/06/30 09:33:00;;;;;;;20.92;13.40;;;21.40;68.20;;;;;;5040510;28;20041;-60
2023/06/30 09:35:26;;;;;;;23.65;15.82;;;21.30;67.40;;;;;;5040665;28;20036;-60
2023/06/30 09:37:56;;;;;;;21.05;13.80;;;21.30;67.70;;;;;;5041172;28;20025;-59
2023/06/30 09:40:25;;;;;;;18.00;12.63;;;21.30;68.00;;;;;;5037692;28;20040;-58
2023/06/30 09:42:53;;;;;;;20.63;13.38;;;21.40;69.00;;;;;;5040230;28;20040;-60
2023/06/30 09:45:19;;;;;;;19.33;12.52;;;21.40;68.90;;;;;;5040519;28;20025;-59
2023/06/30 09:47:55;;;;;;;19.65;12.13;;;21.50;69.60;;;;;;5040059;28;20029;-59
2023/06/30 09:50:23;;;;;;;22.60;12.70;;;21.60;69.20;;;;;;5022691;28;20067;-59
2023/06/30 09:52:49;;;;;;;18.35;11.63;;;21.70;69.00;;;;;;5037580;28;20038;-58
2023/06/30 09:55:15;;;;;;;17.92;11.68;;;21.80;68.60;;;;;;5039515;28;20040;-59
2023/06/30 09:57:43;;;;;;;20.38;11.98;;;21.90;68.60;;;;;;5039551;28;20081;-59
2023/06/30 10:00:12;;;;;;;19.05;12.20;;;22.00;68.50;;;;;;5039748;28;20025;-59
2023/06/30 10:02:39;;;;;;;16.77;11.70;;;22.00;69.20;;;;;;5041057;28;20021;-59
2023/06/30 10:05:06;;;;;;;17.77;10.48;;;22.00;69.20;;;;;;5040835;28;20037;-59
2023/06/30 10:07:32;;;;;;;16.92;10.82;;;22.10;69.20;;;;;;5040587;28;20025;-59
2023/06/30 10:10:00;;;;;;;18.38;11.15;;;22.10;69.80;;;;;;5040132;28;20694;-60
2023/06/30 10:12:27;;;;;;;15.43;10.10;;;22.30;68.70;;;;;;5040790;28;20033;-58
2023/06/30 10:14:53;;;;;;;15.55;10.57;;;22.30;68.80;;;;;;5039692;28;20032;-60
2023/06/30 10:17:19;;;;;;;14.68;9.93;;;22.40;67.70;;;;;;5040806;28;20033;-60
2023/06/30 10:19:45;;;;;;;13.35;9.35;;;22.40;67.30;;;;;;5041120;28;20029;-60
2023/06/30 10:22:12;;;;;;;14.45;9.60;;;22.40;67.10;;;;;;5040622;28;20044;-60
2023/06/30 10:24:41;;;;;;;13.10;9.32;;;22.40;67.50;;;;;;5039631;28;20042;-60
2023/06/30 10:27:09;;;;;;;13.50;9.18;;;22.40;67.70;;;;;;5035805;28;20083;-60
2023/06/30 10:29:35;;;;;;;14.30;9.30;;;22.40;67.40;;;;;;5039516;28;20071;-59
2023/06/30 10:32:03;;;;;;;15.70;10.10;;;22.40;67.80;;;;;;5040920;28;20179;-59
2023/06/30 10:34:30;;;;;;;13.15;8.98;;;22.50;67.50;;;;;;5039389;28;20519;-60
2023/06/30 10:36:56;;;;;;;12.23;8.88;;;22.60;67.90;;;;;;5039637;28;20083;-59
2023/06/30 10:39:22;;;;;;;13.32;9.07;;;22.70;68.20;;;;;;5039145;28;20025;-60
2023/06/30 10:41:49;;;;;;;15.75;9.27;;;22.80;68.50;;;;;;5040602;28;20079;-59
2023/06/30 10:44:15;;;;;;;13.52;9.40;;;23.00;68.00;;;;;;5039217;28;20093;-59
2023/06/30 10:46:52;;;;;;;11.23;8.90;;;23.10;68.00;;;;;;5039332;28;20033;-60
2023/06/30 10:49:32;;;;;;;13.68;9.05;;;23.20;67.30;;;;;;5040177;28;20475;-60
2023/06/30 10:52:00;;;;;;;13.70;9.38;;;23.40;66.40;;;;;;5039630;28;20095;-59
2023/06/30 10:54:30;;;;;;;12.38;9.18;;;23.50;65.60;;;;;;5039361;28;20044;-62
2023/06/30 10:57:15;;;;;;;14.75;9.93;;;23.50;65.00;;;;;;5039344;28;20033;-61
2023/06/30 10:59:43;;;;;;;15.88;10.18;;;23.50;64.90;;;;;;5039439;28;20096;-61
2023/06/30 11:02:18;;;;;;;18.38;9.70;;;23.50;63.70;;;;;;5039328;28;20034;-61
2023/06/30 11:04:45;;;;;;;12.75;9.15;;;23.50;64.50;;;;;;5037452;28;20021;-60
2023/06/30 11:07:17;;;;;;;15.07;9.57;;;23.50;65.00;;;;;;5040383;28;20018;-61
2023/06/30 11:09:48;;;;;;;13.70;9.38;;;23.50;65.60;;;;;;5038159;28;20026;-61
2023/06/30 11:12:27;;;;;;;17.27;10.52;;;23.60;65.00;;;;;;5043022;28;20040;-61
2023/06/30 11:15:00;;;;;;;15.15;9.18;;;23.70;64.30;;;;;;5043694;28;20025;-61
2023/06/30 11:17:27;;;;;;;15.57;9.95;;;23.70;64.90;;;;;;5043098;28;20090;-60
2023/06/30 11:20:10;;;;;;;15.55;9.68;;;23.80;64.40;;;;;;5043045;28;20061;-61
2023/06/30 11:22:36;;;;;;;15.48;9.98;;;23.80;64.30;;;;;;5040886;28;20026;-61
2023/06/30 11:25:10;;;;;;;14.05;9.95;;;23.90;64.00;;;;;;5042254;28;20064;-61
2023/06/30 11:27:37;;;;;;;16.33;10.20;;;24.00;65.20;;;;;;5038261;28;20029;-61
2023/06/30 11:30:04;;;;;;;17.02;11.13;;;24.10;65.30;;;;;;5042583;28;20025;-62
2023/06/30 11:32:32;;;;;;;15.88;10.65;;;24.40;64.60;;;;;;5044520;28;20120;-62
2023/06/30 11:35:01;;;;;;;15.63;10.27;;;24.50;63.50;;;;;;5042714;28;20036;-62
2023/06/30 11:37:27;;;;;;;16.15;11.00;;;24.70;62.50;;;;;;5042260;28;20033;-61
2023/06/30 11:39:54;;;;;;;19.90;11.55;;;24.80;62.00;;;;;;5042118;28;20022;-61
2023/06/30 11:42:20;;;;;;;17.25;11.15;;;24.90;61.50;;;;;;5043177;28;20022;-62
2023/06/30 11:44:48;;;;;;;17.08;11.27;;;25.00;60.90;;;;;;5042319;28;20029;-61
2023/06/30 11:47:18;;;;;;;19.20;10.85;;;25.00;60.50;;;;;;5042367;28;20044;-63
2023/06/30 11:49:48;;;;;;;17.35;10.43;;;25.00;60.50;;;;;;5042409;28;20018;-61
2023/06/30 11:52:15;;;;;;;16.40;11.75;;;25.10;60.50;;;;;;5025380;28;20049;-62
2023/06/30 11:54:41;;;;;;;16.42;10.93;;;25.10;60.20;;;;;;5039214;28;20049;-61
2023/06/30 11:57:08;;;;;;;16.23;10.05;;;25.20;60.40;;;;;;5041914;28;20037;-63
2023/06/30 11:59:34;;;;;;;16.48;10.95;;;25.30;60.70;;;;;;5042228;28;20021;-62
2023/06/30 12:02:02;;;;;;;15.98;11.30;;;25.40;61.20;;;;;;5043160;28;20116;-63
2023/06/30 12:04:33;;;;;;;24.30;11.05;;;25.70;60.80;;;;;;5042009;28;21014;-61
2023/06/30 12:06:59;;;;;;;17.65;11.77;;;25.80;59.80;;;;;;5041212;28;20064;-61
2023/06/30 12:09:25;;;;;;;21.38;12.27;;;25.90;59.10;;;;;;5041410;28;20036;-61
2023/06/30 12:11:51;;;;;;;18.35;12.23;;;25.90;58.50;;;;;;5042621;28;20025;-61
2023/06/30 12:14:21;;;;;;;19.10;11.70;;;25.80;58.20;;;;;;5041814;28;20112;-62
2023/06/30 12:16:53;;;;;;;19.88;12.82;;;25.60;58.10;;;;;;5041652;28;20519;-62
2023/06/30 12:19:27;;;;;;;20.00;12.35;;;25.40;58.10;;;;;;5041834;28;20057;-62
2023/06/30 12:21:59;;;;;;;18.60;11.40;;;25.20;58.20;;;;;;5023256;28;20084;-63
2023/06/30 12:24:30;;;;;;;18.77;12.48;;;25.10;58.70;;;;;;5041398;28;20037;-62
2023/06/30 12:26:55;;;;;;;19.17;11.80;;;25.00;58.90;;;;;;5041450;28;20032;-62
2023/06/30 12:29:22;;;;;;;20.85;11.80;;;25.00;59.00;;;;;;5042378;28;20049;-63
2023/06/30 12:31:48;;;;;;;18.08;12.00;;;25.00;59.00;;;;;;5041463;28;20060;-62
2023/06/30 12:34:31;;;;;;;20.00;11.68;;;25.00;59.00;;;;;;5041047;28;20041;-63
2023/06/30 12:36:59;;;;;;;15.77;10.75;;;25.00;58.80;;;;;;5042776;28;20049;-62